createdAt,value
2018-08-16T00:00:20.762Z,0
2018-08-16T00:01:22.146Z,0
2018-08-16T00:02:23.537Z,0
2018-08-16T00:03:24.931Z,0
2018-08-16T00:04:26.322Z,0
2018-08-16T00:05:27.719Z,0
2018-08-16T00:06:29.112Z,0
2018-08-16T00:07:30.501Z,0
2018-08-16T00:08:31.890Z,0
2018-08-16T00:09:33.284Z,0
2018-08-16T00:10:34.675Z,0
2018-08-16T00:11:36.069Z,0
2018-08-16T00:12:37.460Z,0
2018-08-16T00:13:38.856Z,0
2018-08-16T00:14:40.242Z,0
2018-08-16T00:15:41.633Z,0
2018-08-16T00:16:43.024Z,0
2018-08-16T00:17:44.417Z,0
2018-08-16T00:18:45.811Z,0
2018-08-16T00:19:47.205Z,0
2018-08-16T00:20:48.591Z,0
2018-08-16T00:21:49.982Z,0
2018-08-16T00:22:51.374Z,0
2018-08-16T00:23:52.763Z,0
2018-08-16T00:24:54.156Z,0
2018-08-16T00:25:55.549Z,0
2018-08-16T00:26:56.941Z,0
2018-08-16T00:27:58.331Z,0
2018-08-16T00:28:59.726Z,0
2018-08-16T00:30:01.112Z,0
2018-08-16T00:31:02.508Z,0
2018-08-16T00:32:03.895Z,0
2018-08-16T00:33:05.288Z,0
2018-08-16T00:34:06.682Z,0
2018-08-16T00:35:08.069Z,0
2018-08-16T00:36:09.460Z,0
2018-08-16T00:37:10.851Z,0
2018-08-16T00:38:12.247Z,0
2018-08-16T00:39:13.631Z,0
2018-08-16T00:40:15.092Z,0
2018-08-16T00:41:16.481Z,0
2018-08-16T00:42:17.875Z,0
2018-08-16T00:43:19.267Z,0
2018-08-16T00:44:20.655Z,0
2018-08-16T00:45:22.049Z,0
2018-08-16T00:46:23.439Z,0
2018-08-16T00:47:24.831Z,0
2018-08-16T00:48:26.223Z,0
2018-08-16T00:49:27.612Z,0
2018-08-16T00:50:29.003Z,0
2018-08-16T00:51:30.392Z,0
2018-08-16T00:52:31.786Z,0
2018-08-16T00:53:33.182Z,0
2018-08-16T00:54:34.572Z,0
2018-08-16T00:55:35.960Z,0
2018-08-16T00:56:37.354Z,0
2018-08-16T00:57:38.741Z,0
2018-08-16T00:58:40.133Z,0
2018-08-16T00:59:41.527Z,0
2018-08-16T01:00:42.916Z,0
2018-08-16T01:01:44.310Z,0
2018-08-16T01:02:45.703Z,0
2018-08-16T01:03:47.090Z,0
2018-08-16T01:04:48.481Z,0
2018-08-16T01:05:49.872Z,0
2018-08-16T01:06:51.262Z,0
2018-08-16T01:07:52.656Z,0
2018-08-16T01:08:54.047Z,0
2018-08-16T01:09:55.437Z,0
2018-08-16T01:10:56.825Z,0
2018-08-16T01:11:58.216Z,0
2018-08-16T01:12:59.606Z,0
2018-08-16T01:14:01.002Z,0
2018-08-16T01:15:02.401Z,0
2018-08-16T01:16:03.790Z,0
2018-08-16T01:17:05.181Z,0
2018-08-16T01:18:06.576Z,0
2018-08-16T01:19:07.963Z,0
2018-08-16T01:20:09.361Z,0
2018-08-16T01:21:10.745Z,0
2018-08-16T01:22:12.140Z,0
2018-08-16T01:23:13.531Z,0
2018-08-16T01:24:14.930Z,0
2018-08-16T01:25:16.349Z,0
2018-08-16T01:26:17.740Z,0
2018-08-16T01:27:19.130Z,0
2018-08-16T01:28:20.522Z,0
2018-08-16T01:29:21.913Z,0
2018-08-16T01:30:23.307Z,0
2018-08-16T01:31:24.697Z,0
2018-08-16T01:32:26.088Z,0
2018-08-16T01:33:27.479Z,0
2018-08-16T01:34:28.872Z,0
2018-08-16T01:35:30.310Z,0
2018-08-16T01:36:31.654Z,0
2018-08-16T01:37:33.044Z,0
2018-08-16T01:38:34.434Z,0
2018-08-16T01:39:35.823Z,0
2018-08-16T01:40:37.215Z,0
2018-08-16T01:41:38.605Z,0
2018-08-16T01:42:39.994Z,0
2018-08-16T01:43:41.386Z,0
2018-08-16T01:44:42.780Z,0
2018-08-16T01:45:44.166Z,0
2018-08-16T01:46:45.560Z,0
2018-08-16T01:47:46.952Z,0
2018-08-16T01:48:48.340Z,0
2018-08-16T01:49:49.733Z,0
2018-08-16T01:50:51.128Z,0
2018-08-16T01:51:52.518Z,0
2018-08-16T01:52:53.910Z,0
2018-08-16T01:53:55.299Z,0
2018-08-16T01:54:56.689Z,0
2018-08-16T01:55:58.082Z,0
2018-08-16T01:56:59.471Z,0
2018-08-16T01:58:00.864Z,0
2018-08-16T01:59:02.258Z,0
2018-08-16T02:00:03.657Z,0
2018-08-16T02:01:05.050Z,0
2018-08-16T02:02:06.442Z,0
2018-08-16T02:03:07.832Z,0
2018-08-16T02:04:09.224Z,0
2018-08-16T02:05:10.629Z,0
2018-08-16T02:06:12.008Z,0
2018-08-16T02:07:13.399Z,0
2018-08-16T02:08:14.790Z,0
2018-08-16T02:09:16.183Z,0
2018-08-16T02:10:17.608Z,0
2018-08-16T02:11:18.997Z,0
2018-08-16T02:12:20.388Z,0
2018-08-16T02:13:21.782Z,0
2018-08-16T02:14:23.166Z,0
2018-08-16T02:15:24.558Z,0
2018-08-16T02:16:25.947Z,0
2018-08-16T02:17:27.337Z,0
2018-08-16T02:18:28.730Z,0
2018-08-16T02:19:30.124Z,0
2018-08-16T02:20:31.517Z,0
2018-08-16T02:21:32.907Z,0
2018-08-16T02:22:34.295Z,0
2018-08-16T02:23:35.685Z,0
2018-08-16T02:24:37.076Z,0
2018-08-16T02:25:38.469Z,0
2018-08-16T02:26:39.859Z,0
2018-08-16T02:27:41.251Z,0
2018-08-16T02:28:42.640Z,0
2018-08-16T02:29:44.029Z,0
2018-08-16T02:30:45.419Z,0
2018-08-16T02:31:46.814Z,0
2018-08-16T02:32:48.206Z,0
2018-08-16T02:33:49.593Z,0
2018-08-16T02:34:50.987Z,0
2018-08-16T02:35:52.377Z,0
2018-08-16T02:36:53.768Z,0
2018-08-16T02:37:55.163Z,0
2018-08-16T02:38:56.553Z,0
2018-08-16T02:39:57.942Z,0
2018-08-16T02:40:59.332Z,0
2018-08-16T02:42:00.723Z,0
2018-08-16T02:43:02.108Z,0
2018-08-16T02:44:03.502Z,0
2018-08-16T02:45:04.897Z,0
2018-08-16T02:46:06.284Z,0
2018-08-16T02:47:07.680Z,0
2018-08-16T02:48:09.074Z,0
2018-08-16T02:49:10.464Z,0
2018-08-16T02:50:11.859Z,0
2018-08-16T02:51:13.246Z,0
2018-08-16T02:52:14.637Z,0
2018-08-16T02:53:16.029Z,0
2018-08-16T02:54:17.422Z,0
2018-08-16T02:55:18.877Z,0
2018-08-16T02:56:20.313Z,0
2018-08-16T02:57:21.703Z,0
2018-08-16T02:58:23.094Z,0
2018-08-16T02:59:24.485Z,0
2018-08-16T03:00:25.873Z,0
2018-08-16T03:01:27.263Z,0
2018-08-16T03:02:28.659Z,0
2018-08-16T03:03:30.053Z,0
2018-08-16T03:04:31.440Z,0
2018-08-16T03:05:32.831Z,0
2018-08-16T03:06:34.223Z,0
2018-08-16T03:07:35.615Z,0
2018-08-16T03:08:37.005Z,0
2018-08-16T03:09:38.397Z,0
2018-08-16T03:10:39.789Z,0
2018-08-16T03:11:41.176Z,0
2018-08-16T03:12:42.566Z,0
2018-08-16T03:13:43.958Z,0
2018-08-16T03:14:45.350Z,0
2018-08-16T03:15:46.741Z,0
2018-08-16T03:16:48.146Z,0
2018-08-16T03:17:49.554Z,0
2018-08-16T03:18:50.931Z,0
2018-08-16T03:19:52.321Z,0
2018-08-16T03:20:53.711Z,0
2018-08-16T03:21:55.102Z,0
2018-08-16T03:22:56.491Z,0
2018-08-16T03:23:57.883Z,0
2018-08-16T03:24:59.273Z,0
2018-08-16T03:26:00.664Z,0
2018-08-16T03:27:02.054Z,0
2018-08-16T03:28:03.444Z,0
2018-08-16T03:29:04.837Z,0
2018-08-16T03:30:06.232Z,0
2018-08-16T03:31:07.623Z,0
2018-08-16T03:32:09.016Z,0
2018-08-16T03:33:10.406Z,0
2018-08-16T03:34:11.794Z,0
2018-08-16T03:35:13.215Z,0
2018-08-16T03:36:14.577Z,0
2018-08-16T03:37:15.967Z,0
2018-08-16T03:38:17.360Z,0
2018-08-16T03:39:18.754Z,0
2018-08-16T03:40:20.143Z,0
2018-08-16T03:41:21.589Z,0
2018-08-16T03:42:22.984Z,0
2018-08-16T03:43:24.372Z,0
2018-08-16T03:44:25.763Z,0
2018-08-16T03:45:27.156Z,0
2018-08-16T03:46:28.549Z,0
2018-08-16T03:47:29.940Z,0
2018-08-16T03:48:31.326Z,0
2018-08-16T03:49:32.718Z,0
2018-08-16T03:50:34.110Z,0
2018-08-16T03:51:35.501Z,0
2018-08-16T03:52:36.895Z,0
2018-08-16T03:53:38.285Z,0
2018-08-16T03:54:39.676Z,0
2018-08-16T03:55:41.065Z,0
2018-08-16T03:56:42.455Z,4
2018-08-16T03:57:43.846Z,4
2018-08-16T03:58:45.237Z,0
2018-08-16T03:59:46.627Z,0
2018-08-16T04:00:48.011Z,4
2018-08-16T04:01:49.449Z,4
2018-08-16T04:02:50.840Z,4
2018-08-16T04:03:52.229Z,4
2018-08-16T04:04:53.625Z,4
2018-08-16T04:05:55.016Z,8
2018-08-16T04:06:56.405Z,8
2018-08-16T04:07:57.802Z,8
2018-08-16T04:08:59.191Z,8
2018-08-16T04:10:00.580Z,12
2018-08-16T04:11:01.975Z,12
2018-08-16T04:12:03.367Z,12
2018-08-16T04:13:04.756Z,16
2018-08-16T04:14:06.146Z,16
2018-08-16T04:15:07.542Z,20
2018-08-16T04:16:08.933Z,24
2018-08-16T04:17:10.323Z,28
2018-08-16T04:18:11.718Z,32
2018-08-16T04:19:13.108Z,32
2018-08-16T04:20:14.502Z,40
2018-08-16T04:21:15.895Z,44
2018-08-16T04:22:17.285Z,48
2018-08-16T04:23:18.674Z,52
2018-08-16T04:24:20.064Z,56
2018-08-16T04:25:21.458Z,64
2018-08-16T04:26:22.912Z,68
2018-08-16T04:27:24.335Z,76
2018-08-16T04:28:25.727Z,84
2018-08-16T04:29:27.118Z,88
2018-08-16T04:30:28.512Z,96
2018-08-16T04:31:29.902Z,104
2018-08-16T04:32:31.296Z,108
2018-08-16T04:33:32.689Z,120
2018-08-16T04:34:34.120Z,128
2018-08-16T04:35:35.563Z,132
2018-08-16T04:36:36.909Z,144
2018-08-16T04:37:38.301Z,152
2018-08-16T04:38:39.690Z,164
2018-08-16T04:39:41.084Z,176
2018-08-16T04:40:42.475Z,184
2018-08-16T04:41:43.939Z,196
2018-08-16T04:42:45.267Z,208
2018-08-16T04:43:46.664Z,224
2018-08-16T04:44:48.057Z,232
2018-08-16T04:45:49.448Z,248
2018-08-16T04:46:50.842Z,264
2018-08-16T04:47:52.236Z,280
2018-08-16T04:48:53.629Z,292
2018-08-16T04:49:55.023Z,296
2018-08-16T04:50:56.420Z,308
2018-08-16T04:51:57.813Z,324
2018-08-16T04:52:59.204Z,348
2018-08-16T04:54:00.595Z,360
2018-08-16T04:55:01.988Z,376
2018-08-16T04:56:03.383Z,392
2018-08-16T04:57:04.889Z,400
2018-08-16T04:58:06.174Z,416
2018-08-16T04:59:07.568Z,428
2018-08-16T05:00:08.958Z,432
2018-08-16T05:01:10.351Z,448
2018-08-16T05:02:11.742Z,464
2018-08-16T05:03:13.137Z,484
2018-08-16T05:04:14.537Z,488
2018-08-16T05:05:15.932Z,488
2018-08-16T05:06:17.321Z,496
2018-08-16T05:07:18.712Z,504
2018-08-16T05:08:20.108Z,512
2018-08-16T05:09:21.498Z,524
2018-08-16T05:10:22.892Z,532
2018-08-16T05:11:24.300Z,560
2018-08-16T05:12:25.699Z,572
2018-08-16T05:13:27.093Z,568
2018-08-16T05:14:28.486Z,564
2018-08-16T05:15:29.881Z,580
2018-08-16T05:16:31.273Z,600
2018-08-16T05:17:32.667Z,608
2018-08-16T05:18:34.062Z,616
2018-08-16T05:19:35.456Z,604
2018-08-16T05:20:36.850Z,600
2018-08-16T05:21:38.244Z,596
2018-08-16T05:22:39.636Z,608
2018-08-16T05:23:41.036Z,636
2018-08-16T05:24:42.425Z,660
2018-08-16T05:25:43.819Z,656
2018-08-16T05:26:45.213Z,656
2018-08-16T05:27:46.609Z,676
2018-08-16T05:28:47.999Z,676
2018-08-16T05:29:49.392Z,680
2018-08-16T05:30:50.786Z,672
2018-08-16T05:31:52.185Z,660
2018-08-16T05:32:53.575Z,640
2018-08-16T05:33:54.971Z,624
2018-08-16T05:34:56.371Z,620
2018-08-16T05:35:57.761Z,608
2018-08-16T05:36:59.158Z,612
2018-08-16T05:38:00.549Z,628
2018-08-16T05:39:01.943Z,644
2018-08-16T05:40:03.341Z,660
2018-08-16T05:41:04.737Z,672
2018-08-16T05:42:06.172Z,680
2018-08-16T05:43:07.581Z,676
2018-08-16T05:44:08.944Z,676
2018-08-16T05:45:10.340Z,672
2018-08-16T05:46:11.732Z,664
2018-08-16T05:47:13.127Z,660
2018-08-16T05:48:14.527Z,660
2018-08-16T05:49:15.917Z,664
2018-08-16T05:50:17.309Z,668
2018-08-16T05:51:18.704Z,672
2018-08-16T05:52:20.096Z,676
2018-08-16T05:53:21.495Z,684
2018-08-16T05:54:22.887Z,692
2018-08-16T05:55:24.284Z,700
2018-08-16T05:56:25.726Z,708
2018-08-16T05:57:27.156Z,712
2018-08-16T05:58:28.553Z,720
2018-08-16T05:59:30.012Z,732
2018-08-16T06:00:31.343Z,748
2018-08-16T06:01:32.740Z,784
2018-08-16T06:02:34.133Z,820
2018-08-16T06:03:35.524Z,824
2018-08-16T06:04:36.918Z,780
2018-08-16T06:05:38.315Z,780
2018-08-16T06:06:39.711Z,792
2018-08-16T06:07:41.162Z,800
2018-08-16T06:08:42.463Z,812
2018-08-16T06:09:43.858Z,844
2018-08-16T06:10:45.253Z,848
2018-08-16T06:11:46.644Z,860
2018-08-16T06:12:48.040Z,864
2018-08-16T06:13:49.435Z,876
2018-08-16T06:14:50.831Z,884
2018-08-16T06:15:52.222Z,888
2018-08-16T06:16:53.619Z,892
2018-08-16T06:17:55.014Z,904
2018-08-16T06:18:56.408Z,908
2018-08-16T06:19:57.799Z,916
2018-08-16T06:20:59.193Z,924
2018-08-16T06:22:00.591Z,928
2018-08-16T06:23:01.987Z,932
2018-08-16T06:24:03.435Z,940
2018-08-16T06:25:04.780Z,948
2018-08-16T06:26:06.174Z,956
2018-08-16T06:27:07.565Z,956
2018-08-16T06:28:08.966Z,964
2018-08-16T06:29:10.353Z,972
2018-08-16T06:30:11.752Z,984
2018-08-16T06:31:13.189Z,996
2018-08-16T06:32:14.540Z,1004
2018-08-16T06:33:15.934Z,1008
2018-08-16T06:34:17.331Z,1020
2018-08-16T06:35:18.720Z,1032
2018-08-16T06:36:20.140Z,1044
2018-08-16T06:37:21.539Z,1056
2018-08-16T06:38:22.936Z,1064
2018-08-16T06:39:24.340Z,1080
2018-08-16T06:40:25.725Z,1092
2018-08-16T06:41:27.143Z,1108
2018-08-16T06:42:28.588Z,1116
2018-08-16T06:43:29.984Z,1128
2018-08-16T06:44:31.380Z,1136
2018-08-16T06:45:32.778Z,1140
2018-08-16T06:46:34.178Z,1148
2018-08-16T06:47:35.567Z,1156
2018-08-16T06:48:36.964Z,1160
2018-08-16T06:49:38.360Z,1164
2018-08-16T06:50:39.754Z,1168
2018-08-16T06:51:41.150Z,1180
2018-08-16T06:52:42.560Z,1188
2018-08-16T06:53:43.941Z,1192
2018-08-16T06:54:45.336Z,1192
2018-08-16T06:55:46.736Z,1204
2018-08-16T06:56:48.130Z,1216
2018-08-16T06:57:49.527Z,1224
2018-08-16T06:58:50.939Z,1236
2018-08-16T06:59:52.335Z,1236
2018-08-16T07:00:53.737Z,1236
2018-08-16T07:01:55.131Z,1268
2018-08-16T07:02:56.532Z,1296
2018-08-16T07:03:57.929Z,1312
2018-08-16T07:04:59.359Z,1328
2018-08-16T07:06:00.730Z,1340
2018-08-16T07:07:02.139Z,1352
2018-08-16T07:08:03.532Z,1372
2018-08-16T07:09:04.928Z,1388
2018-08-16T07:10:06.326Z,1408
2018-08-16T07:11:07.717Z,1428
2018-08-16T07:12:10.069Z,1452
2018-08-16T07:13:11.322Z,1472
2018-08-16T07:14:12.716Z,1496
2018-08-16T07:15:14.114Z,1520
2018-08-16T07:16:15.719Z,1544
2018-08-16T07:17:17.213Z,1564
2018-08-16T07:18:18.672Z,1580
2018-08-16T07:19:20.161Z,1608
2018-08-16T07:20:21.677Z,1616
2018-08-16T07:21:23.498Z,1628
2018-08-16T07:22:25.050Z,1640
2018-08-16T07:23:26.768Z,1700
2018-08-16T07:24:28.530Z,1728
2018-08-16T07:25:30.221Z,1752
2018-08-16T07:26:31.923Z,1772
2018-08-16T07:27:33.419Z,1796
2018-08-16T07:28:35.316Z,1828
2018-08-16T07:29:36.909Z,1856
2018-08-16T07:30:38.550Z,1876
2018-08-16T07:31:40.249Z,1888
2018-08-16T07:32:42.246Z,1928
2018-08-16T07:33:43.799Z,1956
2018-08-16T07:34:45.693Z,1976
2018-08-16T07:35:47.308Z,1988
2018-08-16T07:36:49.014Z,1952
2018-08-16T07:37:51.128Z,2028
2018-08-16T07:38:52.713Z,2072
2018-08-16T07:39:54.510Z,2096
2018-08-16T07:40:56.352Z,2112
2018-08-16T07:41:58.131Z,2112
2018-08-16T07:42:59.660Z,2136
2018-08-16T07:44:01.561Z,2164
2018-08-16T07:45:03.339Z,2188
2018-08-16T07:46:04.898Z,2204
2018-08-16T07:47:06.315Z,2224
2018-08-16T07:48:07.780Z,2244
2018-08-16T07:49:09.325Z,2272
2018-08-16T07:50:10.905Z,2320
2018-08-16T07:51:12.497Z,2356
2018-08-16T07:52:14.018Z,2384
2018-08-16T07:53:15.581Z,2372
2018-08-16T07:54:17.115Z,2388
2018-08-16T07:55:18.713Z,2456
2018-08-16T07:56:20.726Z,2500
2018-08-16T07:57:22.287Z,2640
2018-08-16T07:58:23.854Z,2652
2018-08-16T07:59:25.449Z,2680
2018-08-16T08:00:27.010Z,2784
2018-08-16T08:01:28.597Z,2860
2018-08-16T08:02:30.137Z,2936
2018-08-16T08:03:31.658Z,3020
2018-08-16T08:04:33.144Z,3116
2018-08-16T08:05:34.709Z,3072
2018-08-16T08:06:36.248Z,3176
2018-08-16T08:07:37.650Z,3252
2018-08-16T08:08:39.045Z,3284
2018-08-16T08:09:40.494Z,3208
2018-08-16T08:10:41.890Z,3432
2018-08-16T08:11:43.292Z,3388
2018-08-16T08:12:44.693Z,3264
2018-08-16T08:13:46.089Z,3376
2018-08-16T08:14:47.485Z,3516
2018-08-16T08:15:48.921Z,3516
2018-08-16T08:16:50.320Z,3632
2018-08-16T08:17:51.721Z,3652
2018-08-16T08:18:53.116Z,3676
2018-08-16T08:19:54.515Z,3668
2018-08-16T08:20:55.911Z,3544
2018-08-16T08:21:57.311Z,3600
2018-08-16T08:22:58.709Z,3244
2018-08-16T08:24:00.105Z,3728
2018-08-16T08:25:01.505Z,3684
2018-08-16T08:26:02.901Z,3472
2018-08-16T08:27:04.298Z,3616
2018-08-16T08:28:05.698Z,3616
2018-08-16T08:29:07.096Z,3436
2018-08-16T08:30:08.494Z,3736
2018-08-16T08:31:09.895Z,3720
2018-08-16T08:32:11.297Z,4032
2018-08-16T08:33:12.695Z,4024
2018-08-16T08:34:14.090Z,3964
2018-08-16T08:35:15.488Z,4128
2018-08-16T08:36:16.889Z,4148
2018-08-16T08:37:18.420Z,4356
2018-08-16T08:38:19.820Z,4280
2018-08-16T08:39:21.224Z,4268
2018-08-16T08:40:22.627Z,4144
2018-08-16T08:41:24.021Z,4148
2018-08-16T08:42:25.420Z,4308
2018-08-16T08:43:26.826Z,4376
2018-08-16T08:44:28.224Z,3908
2018-08-16T08:45:29.621Z,4540
2018-08-16T08:46:31.020Z,4612
2018-08-16T08:47:32.423Z,4552
2018-08-16T08:48:33.820Z,4772
2018-08-16T08:49:35.218Z,4632
2018-08-16T08:50:36.617Z,4696
2018-08-16T08:51:38.017Z,4796
2018-08-16T08:52:39.419Z,4688
2018-08-16T08:53:40.820Z,4764
2018-08-16T08:54:42.221Z,4792
2018-08-16T08:55:43.619Z,4688
2018-08-16T08:56:45.020Z,4920
2018-08-16T08:57:46.429Z,5204
2018-08-16T08:58:47.837Z,5352
2018-08-16T08:59:49.231Z,5316
2018-08-16T09:00:50.633Z,5644
2018-08-16T09:01:52.035Z,5736
2018-08-16T09:02:53.429Z,5568
2018-08-16T09:03:54.832Z,5624
2018-08-16T09:04:56.228Z,5272
2018-08-16T09:05:57.628Z,5112
2018-08-16T09:06:59.084Z,5644
2018-08-16T09:08:00.429Z,5916
2018-08-16T09:09:01.831Z,5888
2018-08-16T09:10:03.226Z,5888
2018-08-16T09:11:04.624Z,6012
2018-08-16T09:12:06.023Z,6000
2018-08-16T09:13:07.426Z,5884
2018-08-16T09:14:08.828Z,5824
2018-08-16T09:15:10.229Z,5704
2018-08-16T09:16:11.629Z,5920
2018-08-16T09:17:13.026Z,6732
2018-08-16T09:18:14.426Z,6568
2018-08-16T09:19:15.852Z,6512
2018-08-16T09:20:17.253Z,6528
2018-08-16T09:21:18.700Z,6144
2018-08-16T09:22:20.124Z,4736
2018-08-16T09:23:21.529Z,6468
2018-08-16T09:24:22.930Z,6488
2018-08-16T09:25:24.324Z,6728
2018-08-16T09:26:25.765Z,6656
2018-08-16T09:27:27.121Z,6644
2018-08-16T09:28:28.520Z,6612
2018-08-16T09:29:29.920Z,6840
2018-08-16T09:30:31.319Z,6860
2018-08-16T09:31:32.734Z,6652
2018-08-16T09:32:34.117Z,6868
2018-08-16T09:33:35.554Z,7044
2018-08-16T09:34:36.952Z,6976
2018-08-16T09:35:38.355Z,7024
2018-08-16T09:36:39.755Z,6956
2018-08-16T09:37:41.157Z,6888
2018-08-16T09:38:42.556Z,6992
2018-08-16T09:39:44.092Z,7044
2018-08-16T09:40:45.358Z,7040
2018-08-16T09:41:46.751Z,7104
2018-08-16T09:42:48.152Z,6992
2018-08-16T09:43:49.551Z,7164
2018-08-16T09:44:50.995Z,7184
2018-08-16T09:45:52.390Z,7376
2018-08-16T09:46:53.790Z,7528
2018-08-16T09:47:55.188Z,7444
2018-08-16T09:48:56.594Z,7720
2018-08-16T09:49:57.995Z,7768
2018-08-16T09:50:59.396Z,7868
2018-08-16T09:52:00.800Z,7860
2018-08-16T09:53:02.195Z,7976
2018-08-16T09:54:03.596Z,8104
2018-08-16T09:55:04.998Z,8332
2018-08-16T09:56:06.397Z,8300
2018-08-16T09:57:07.797Z,8232
2018-08-16T09:58:09.204Z,8176
2018-08-16T09:59:10.629Z,8696
2018-08-16T10:00:12.077Z,8880
2018-08-16T10:01:13.477Z,8796
2018-08-16T10:02:14.912Z,8860
2018-08-16T10:03:16.277Z,9132
2018-08-16T10:04:17.678Z,9128
2018-08-16T10:05:19.104Z,9552
2018-08-16T10:06:20.607Z,8900
2018-08-16T10:07:22.008Z,9172
2018-08-16T10:08:23.408Z,10040
2018-08-16T10:09:24.807Z,10008
2018-08-16T10:10:26.209Z,10088
2018-08-16T10:11:27.612Z,10208
2018-08-16T10:12:29.014Z,9932
2018-08-16T10:13:30.479Z,9404
2018-08-16T10:14:31.826Z,9904
2018-08-16T10:15:33.213Z,8896
2018-08-16T10:16:34.615Z,10176
2018-08-16T10:17:36.014Z,10528
2018-08-16T10:18:37.417Z,10928
2018-08-16T10:19:38.821Z,11852
2018-08-16T10:20:40.241Z,10984
2018-08-16T10:21:41.643Z,11188
2018-08-16T10:22:43.099Z,10632
2018-08-16T10:23:44.491Z,10840
2018-08-16T10:24:45.897Z,10676
2018-08-16T10:25:47.299Z,10492
2018-08-16T10:26:48.720Z,10604
2018-08-16T10:27:50.111Z,11012
2018-08-16T10:28:51.508Z,12440
2018-08-16T10:29:52.908Z,11724
2018-08-16T10:30:54.309Z,12948
2018-08-16T10:31:55.711Z,13248
2018-08-16T10:32:57.118Z,13896
2018-08-16T10:33:58.518Z,14360
2018-08-16T10:34:59.922Z,15288
2018-08-16T10:36:01.331Z,15528
2018-08-16T10:37:02.762Z,15824
2018-08-16T10:38:04.140Z,15364
2018-08-16T10:39:05.545Z,16512
2018-08-16T10:40:06.949Z,17824
2018-08-16T10:41:08.353Z,19616
2018-08-16T10:42:09.755Z,21120
2018-08-16T10:43:11.157Z,22240
2018-08-16T10:44:12.557Z,25216
2018-08-16T10:45:13.961Z,26528
2018-08-16T10:46:15.373Z,24704
2018-08-16T10:47:16.841Z,25120
2018-08-16T10:48:18.245Z,25024
2018-08-16T10:49:19.675Z,28416
2018-08-16T10:50:21.161Z,26816
2018-08-16T10:51:22.563Z,26720
2018-08-16T10:52:23.971Z,25920
2018-08-16T10:53:25.371Z,23744
2018-08-16T10:54:26.775Z,18816
2018-08-16T10:55:28.181Z,18688
2018-08-16T10:56:29.631Z,18496
2018-08-16T10:57:31.035Z,18400
2018-08-16T10:58:32.439Z,18048
2018-08-16T10:59:33.842Z,17920
2018-08-16T11:00:35.380Z,17184
2018-08-16T11:01:36.812Z,20768
2018-08-16T11:02:38.218Z,20384
2018-08-16T11:03:39.626Z,21536
2018-08-16T11:04:41.032Z,21664
2018-08-16T11:05:42.442Z,20960
2018-08-16T11:06:43.839Z,19296
2018-08-16T11:07:45.243Z,19616
2018-08-16T11:08:46.646Z,19648
2018-08-16T11:09:48.052Z,19520
2018-08-16T11:10:49.460Z,21248
2018-08-16T11:11:50.862Z,20800
2018-08-16T11:12:52.270Z,19808
2018-08-16T11:13:53.720Z,19904
2018-08-16T11:14:55.073Z,18720
2018-08-16T11:15:56.481Z,18336
2018-08-16T11:16:57.883Z,18880
2018-08-16T11:17:59.288Z,17856
2018-08-16T11:19:00.790Z,18176
2018-08-16T11:20:02.096Z,18944
2018-08-16T11:21:03.726Z,20160
2018-08-16T11:22:05.133Z,19584
2018-08-16T11:23:06.540Z,18688
2018-08-16T11:24:07.943Z,19328
2018-08-16T11:25:09.347Z,19680
2018-08-16T11:26:10.755Z,18944
2018-08-16T11:27:12.155Z,19808
2018-08-16T11:28:13.559Z,20640
2018-08-16T11:29:15.007Z,21024
2018-08-16T11:30:16.374Z,21280
2018-08-16T11:31:17.776Z,20256
2018-08-16T11:32:19.194Z,18848
2018-08-16T11:33:20.606Z,20064
2018-08-16T11:34:22.005Z,19712
2018-08-16T11:35:23.409Z,19296
2018-08-16T11:36:24.816Z,18016
2018-08-16T11:37:26.223Z,19168
2018-08-16T11:38:27.626Z,19360
2018-08-16T11:39:29.033Z,17856
2018-08-16T11:40:30.485Z,18560
2018-08-16T11:41:31.921Z,18336
2018-08-16T11:42:33.325Z,18048
2018-08-16T11:43:34.729Z,16992
2018-08-16T11:44:36.133Z,15156
2018-08-16T11:45:37.540Z,15540
2018-08-16T11:46:39.044Z,14500
2018-08-16T11:47:40.356Z,15160
2018-08-16T11:48:41.765Z,16928
2018-08-16T11:49:43.165Z,17824
2018-08-16T11:50:44.569Z,17184
2018-08-16T11:51:45.977Z,16704
2018-08-16T11:52:47.380Z,15968
2018-08-16T11:53:48.788Z,16672
2018-08-16T11:54:50.190Z,17792
2018-08-16T11:55:51.595Z,16896
2018-08-16T11:56:53.000Z,16704
2018-08-16T11:57:54.404Z,17760
2018-08-16T11:58:55.809Z,18368
2018-08-16T11:59:57.216Z,18112
2018-08-16T12:00:58.623Z,16160
2018-08-16T12:02:00.083Z,15136
2018-08-16T12:03:01.440Z,16384
2018-08-16T12:04:02.845Z,17472
2018-08-16T12:05:04.253Z,16160
2018-08-16T12:06:05.658Z,16896
2018-08-16T12:07:07.065Z,16832
2018-08-16T12:08:08.474Z,17920
2018-08-16T12:09:09.876Z,18464
2018-08-16T12:10:11.281Z,17248
2018-08-16T12:11:12.693Z,17984
2018-08-16T12:12:14.094Z,16320
2018-08-16T12:13:15.504Z,17600
2018-08-16T12:14:16.907Z,18560
2018-08-16T12:15:18.409Z,19296
2018-08-16T12:16:19.762Z,17824
2018-08-16T12:17:21.161Z,17760
2018-08-16T12:18:22.568Z,17760
2018-08-16T12:19:23.975Z,16768
2018-08-16T12:20:25.377Z,17088
2018-08-16T12:21:26.790Z,17568
2018-08-16T12:22:28.195Z,17248
2018-08-16T12:23:29.600Z,18080
2018-08-16T12:24:31.006Z,16960
2018-08-16T12:25:32.409Z,17184
2018-08-16T12:26:33.851Z,16320
2018-08-16T12:27:35.257Z,17536
2018-08-16T12:28:36.665Z,18016
2018-08-16T12:29:38.075Z,17952
2018-08-16T12:30:39.477Z,18752
2018-08-16T12:31:40.884Z,19776
2018-08-16T12:32:42.290Z,20096
2018-08-16T12:33:43.698Z,20384
2018-08-16T12:34:45.154Z,19872
2018-08-16T12:35:46.511Z,19680
2018-08-16T12:36:47.920Z,19776
2018-08-16T12:37:49.410Z,19424
2018-08-16T12:38:50.732Z,18688
2018-08-16T12:39:52.136Z,18464
2018-08-16T12:40:53.552Z,19552
2018-08-16T12:41:54.952Z,20160
2018-08-16T12:42:56.352Z,19200
2018-08-16T12:43:57.760Z,17824
2018-08-16T12:44:59.170Z,18496
2018-08-16T12:46:00.576Z,18912
2018-08-16T12:47:01.982Z,18336
2018-08-16T12:48:03.385Z,16096
2018-08-16T12:49:04.791Z,18400
2018-08-16T12:50:06.196Z,18720
2018-08-16T12:51:07.607Z,17216
2018-08-16T12:52:09.014Z,17664
2018-08-16T12:53:10.426Z,17728
2018-08-16T12:54:11.830Z,18016
2018-08-16T12:55:13.236Z,18720
2018-08-16T12:56:14.640Z,19840
2018-08-16T12:57:16.050Z,19968
2018-08-16T12:58:17.503Z,17024
2018-08-16T12:59:18.867Z,15520
2018-08-16T13:00:20.270Z,16000
2018-08-16T13:01:21.692Z,16512
2018-08-16T13:02:23.084Z,16448
2018-08-16T13:03:24.493Z,17440
2018-08-16T13:04:25.900Z,18272
2018-08-16T13:05:27.308Z,16096
2018-08-16T13:06:28.713Z,17984
2018-08-16T13:07:30.120Z,18208
2018-08-16T13:08:31.528Z,17280
2018-08-16T13:09:32.935Z,17088
2018-08-16T13:10:34.344Z,17664
2018-08-16T13:11:35.750Z,17952
2018-08-16T13:12:37.203Z,18432
2018-08-16T13:13:38.577Z,17312
2018-08-16T13:14:39.983Z,16960
2018-08-16T13:15:41.393Z,17088
2018-08-16T13:16:42.802Z,15020
2018-08-16T13:17:44.209Z,17248
2018-08-16T13:18:45.660Z,17344
2018-08-16T13:19:47.023Z,17952
2018-08-16T13:20:48.431Z,17568
2018-08-16T13:21:49.840Z,16992
2018-08-16T13:22:51.246Z,15872
2018-08-16T13:23:52.651Z,14788
2018-08-16T13:24:54.058Z,14512
2018-08-16T13:25:55.468Z,14764
2018-08-16T13:26:56.876Z,13236
2018-08-16T13:27:58.285Z,12096
2018-08-16T13:28:59.685Z,14424
2018-08-16T13:30:01.117Z,12880
2018-08-16T13:31:02.513Z,14628
2018-08-16T13:32:03.921Z,13436
2018-08-16T13:33:05.329Z,11768
2018-08-16T13:34:06.743Z,14080
2018-08-16T13:35:08.151Z,16064
2018-08-16T13:36:09.559Z,16064
2018-08-16T13:37:11.068Z,16640
2018-08-16T13:38:12.371Z,16032
2018-08-16T13:39:13.782Z,15936
2018-08-16T13:40:15.184Z,15392
2018-08-16T13:41:16.592Z,13520
2018-08-16T13:42:18.069Z,14568
2018-08-16T13:43:19.857Z,13976
2018-08-16T13:44:21.245Z,14412
2018-08-16T13:45:22.653Z,13804
2018-08-16T13:46:24.064Z,12368
2018-08-16T13:47:25.468Z,11908
2018-08-16T13:48:26.955Z,13728
2018-08-16T13:49:28.272Z,13140
2018-08-16T13:50:29.678Z,12976
2018-08-16T13:51:31.084Z,10920
2018-08-16T13:52:32.489Z,10864
2018-08-16T13:53:33.894Z,9720
2018-08-16T13:54:35.305Z,11784
2018-08-16T13:55:36.710Z,12176
2018-08-16T13:56:38.115Z,12668
2018-08-16T13:57:39.519Z,13128
2018-08-16T13:58:40.927Z,13004
2018-08-16T13:59:42.336Z,12316